Time;durP1;ratioP1;P1;durP2;ratioP2;P2;SDS_P1;SDS_P2;PMS_P1;PMS_P2;Temp;Humidity;BMP_temperature;BMP_pressure;BME280_temperature;BME280_humidity;BME280_pressure;Samples;Min_cycle;Max_cycle;Signal;HPM_P1;HPM_P2
2023/02/19 00:01:34;;;;;;;6.18;3.50;;;;;;;;;;5033539;28;20041;-61
2023/02/19 00:04:03;;;;;;;7.00;3.90;;;;;;;;;;5059634;28;20036;-61
2023/02/19 00:06:29;;;;;;;5.28;3.90;;;;;;;;;;5065832;28;20038;-61
2023/02/19 00:08:54;;;;;;;5.97;4.18;;;;;;;;;;5065407;28;20376;-61
2023/02/19 00:11:20;;;;;;;5.23;3.73;;;;;;;;;;5065225;28;20109;-61
2023/02/19 00:13:46;;;;;;;4.97;3.78;;;;;;;;;;5046506;28;20277;-61
2023/02/19 00:16:16;;;;;;;5.60;3.95;;;;;;;;;;5033339;28;20048;-62
2023/02/19 00:18:41;;;;;;;6.32;3.80;;;;;;;;;;5040601;28;20043;-60
2023/02/19 00:21:06;;;;;;;5.43;3.80;;;;;;;;;;5056843;28;20040;-61
2023/02/19 00:23:32;;;;;;;6.35;3.88;;;;;;;;;;5063870;28;20286;-60
2023/02/19 00:26:01;;;;;;;6.00;3.88;;;;;;;;;;5065102;28;20488;-61
2023/02/19 00:28:26;;;;;;;6.47;4.32;;;;;;;;;;5060399;28;20044;-61
2023/02/19 00:30:51;;;;;;;6.00;3.67;;;;;;;;;;5063913;28;20242;-61
2023/02/19 00:33:16;;;;;;;6.90;4.03;;;;;;;;;;5065757;28;20281;-61
2023/02/19 00:35:42;;;;;;;5.87;4.00;;;;;;;;;;5059464;28;20049;-61
2023/02/19 00:38:07;;;;;;;6.03;4.30;;;;;;;;;;5061010;28;20283;-61
2023/02/19 00:40:32;;;;;;;6.23;4.20;;;;;;;;;;5057268;28;20336;-61
2023/02/19 00:42:57;;;;;;;6.07;4.20;;;;;;;;;;5065058;28;20051;-61
2023/02/19 00:45:22;;;;;;;5.83;3.80;;;;;;;;;;5065076;28;20275;-61
2023/02/19 00:47:48;;;;;;;4.85;3.80;;;;;;;;;;5064892;28;20263;-61
2023/02/19 00:50:13;;;;;;;5.93;4.28;;;;;;;;;;5054820;28;20346;-61
2023/02/19 00:52:38;;;;;;;5.90;3.80;;;;;;;;;;5060666;28;20037;-61
2023/02/19 00:55:04;;;;;;;7.47;4.00;;;;;;;;;;5055290;28;20423;-61
2023/02/19 00:57:29;;;;;;;5.55;3.75;;;;;;;;;;5046696;28;20112;-61
2023/02/19 00:59:54;;;;;;;4.80;3.73;;;;;;;;;;5064069;28;20040;-61
2023/02/19 01:02:19;;;;;;;5.63;3.97;;;;;;;;;;5065561;28;20801;-61
2023/02/19 01:04:44;;;;;;;5.97;3.97;;;;;;;;;;5027066;28;20519;-60
2023/02/19 01:07:10;;;;;;;5.40;3.67;;;;;;;;;;5060680;28;21063;-61
2023/02/19 01:09:35;;;;;;;5.63;3.92;;;;;;;;;;5063685;28;20309;-60
2023/02/19 01:12:00;;;;;;;5.72;3.75;;;;;;;;;;5066484;28;20130;-61
2023/02/19 01:14:26;;;;;;;4.83;3.63;;;;;;;;;;5068277;28;20104;-62
2023/02/19 01:16:51;;;;;;;5.85;3.97;;;;;;;;;;5067947;28;20322;-60
2023/02/19 01:19:16;;;;;;;7.30;4.07;;;;;;;;;;5059548;28;20033;-61
2023/02/19 01:21:41;;;;;;;6.90;4.40;;;;;;;;;;5055892;28;20332;-61
2023/02/19 01:24:06;;;;;;;6.40;3.80;;;;;;;;;;5067037;28;20298;-61
2023/02/19 01:26:32;;;;;;;5.57;3.83;;;;;;;;;;5068959;28;20152;-61
2023/02/19 01:29:00;;;;;;;6.18;4.07;;;;;;;;;;5069347;28;20037;-62
2023/02/19 01:31:25;;;;;;;5.80;4.30;;;;;;;;;;5033003;28;20071;-61
2023/02/19 01:33:55;;;;;;;5.85;4.38;;;;;;;;;;5061098;28;20064;-61
2023/02/19 01:36:20;;;;;;;5.43;3.97;;;;;;;;;;5031644;28;20496;-61
2023/02/19 01:38:45;;;;;;;5.55;3.90;;;;;;;;;;5068526;28;20028;-61
2023/02/19 01:41:12;;;;;;;6.00;4.10;;;;;;;;;;5067867;28;20483;-61
2023/02/19 01:43:57;;;;;;;5.40;3.72;;;;;;;;;;5068632;28;20134;-61
2023/02/19 01:46:56;;;;;;;5.75;3.90;;;;;;;;;;5063523;28;20105;-61
2023/02/19 01:49:24;;;;;;;6.10;3.83;;;;;;;;;;5043357;28;20048;-61
2023/02/19 01:52:10;;;;;;;6.13;4.10;;;;;;;;;;5040908;28;20516;-61
2023/02/19 01:54:35;;;;;;;5.78;3.80;;;;;;;;;;5058475;28;20032;-61
2023/02/19 01:57:00;;;;;;;6.38;3.97;;;;;;;;;;5049107;28;20086;-61
2023/02/19 01:59:26;;;;;;;5.20;4.00;;;;;;;;;;5048449;28;20029;-61
2023/02/19 02:01:51;;;;;;;5.33;4.30;;;;;;;;;;5041736;28;20037;-60
2023/02/19 02:04:16;;;;;;;5.50;3.93;;;;;;;;;;5062350;28;20331;-61
2023/02/19 02:06:52;;;;;;;6.03;4.23;;;;;;;;;;5068423;28;20277;-61
2023/02/19 02:12:01;;;;;;;6.40;4.10;;;;;;;;;;5051102;28;20429;-60
2023/02/19 02:14:27;;;;;;;5.63;4.13;;;;;;;;;;5047403;28;20044;-61
2023/02/19 02:16:52;;;;;;;5.18;4.07;;;;;;;;;;5038703;28;20385;-61
2023/02/19 02:19:18;;;;;;;5.70;4.33;;;;;;;;;;5048653;28;20112;-61
2023/02/19 02:21:49;;;;;;;5.83;3.93;;;;;;;;;;5067161;28;20052;-61
2023/02/19 02:24:32;;;;;;;6.13;4.15;;;;;;;;;;5066518;28;20137;-62
2023/02/19 02:27:20;;;;;;;6.88;4.10;;;;;;;;;;5056911;28;20036;-60
2023/02/19 02:29:58;;;;;;;5.15;3.97;;;;;;;;;;5027464;28;20123;-60
2023/02/19 02:32:24;;;;;;;5.22;4.10;;;;;;;;;;5059185;28;20033;-63
2023/02/19 02:34:57;;;;;;;5.32;4.00;;;;;;;;;;5032563;28;20090;-60
2023/02/19 02:37:22;;;;;;;5.35;3.83;;;;;;;;;;5049313;28;20032;-61
2023/02/19 02:39:47;;;;;;;6.13;4.10;;;;;;;;;;5048354;28;20348;-61
2023/02/19 02:42:28;;;;;;;5.57;3.83;;;;;;;;;;5040817;28;20049;-61
2023/02/19 02:47:46;;;;;;;5.82;3.92;;;;;;;;;;5051264;28;20105;-62
2023/02/19 02:50:17;;;;;;;6.35;4.43;;;;;;;;;;5025570;28;20098;-61
2023/02/19 02:55:26;;;;;;;6.25;4.20;;;;;;;;;;5051868;28;20539;-61
2023/02/19 02:57:51;;;;;;;5.25;3.95;;;;;;;;;;5043035;28;20041;-61
2023/02/19 03:00:16;;;;;;;5.57;3.90;;;;;;;;;;5049029;28;20140;-61
2023/02/19 03:02:42;;;;;;;5.20;3.57;;;;;;;;;;5066741;28;20278;-61
2023/02/19 03:08:00;;;;;;;6.47;4.40;;;;;;;;;;5056266;28;20381;-61
2023/02/19 03:10:27;;;;;;;6.35;4.05;;;;;;;;;;5053202;28;20090;-61
2023/02/19 03:21:05;;;;;;;5.60;4.28;;;;;;;;;;5057369;28;20048;-59
2023/02/19 03:26:15;;;;;;;6.20;3.85;;;;;;;;;;5044752;28;20365;-61
2023/02/19 03:31:24;;;;;;;5.15;3.70;;;;;;;;;;5049950;28;20111;-61
2023/02/19 03:33:52;;;;;;;6.28;4.30;;;;;;;;;;5066330;28;20053;-60
2023/02/19 03:36:19;;;;;;;5.63;4.00;;;;;;;;;;5065485;28;20052;-60
2023/02/19 03:38:51;;;;;;;6.28;4.18;;;;;;;;;;5033627;28;20538;-60
2023/02/19 03:41:49;;;;;;;5.95;4.10;;;;;;;;;;5026880;28;20033;-61
2023/02/19 03:44:14;;;;;;;5.25;4.22;;;;;;;;;;5008331;28;20112;-61
2023/02/19 03:46:44;;;;;;;6.87;4.10;;;;;;;;;;5064074;28;20123;-61
2023/02/19 03:49:09;;;;;;;;;;;;;;;;;;5065399;28;20071;-60
2023/02/19 03:51:40;;;;;;;5.15;3.67;;;;;;;;;;5059585;28;19963;-61
2023/02/19 03:54:16;;;;;;;5.78;3.80;;;;;;;;;;5043178;28;20040;-61
2023/02/19 03:56:43;;;;;;;5.75;3.65;;;;;;;;;;5031196;28;20037;-61
2023/02/19 03:59:10;;;;;;;5.72;3.92;;;;;;;;;;5064865;28;20045;-62
2023/02/19 04:01:38;;;;;;;5.78;4.00;;;;;;;;;;5047087;28;20032;-62
2023/02/19 04:04:08;;;;;;;5.43;4.07;;;;;;;;;;5059710;28;20497;-61
2023/02/19 04:06:33;;;;;;;5.22;4.32;;;;;;;;;;5042920;28;20151;-62
2023/02/19 04:08:59;;;;;;;4.82;3.50;;;;;;;;;;5065933;28;20115;-61
2023/02/19 04:11:25;;;;;;;7.28;3.95;;;;;;;;;;5044485;28;20105;-61
2023/02/19 04:13:55;;;;;;;4.93;3.80;;;;;;;;;;5045067;28;20045;-61
2023/02/19 04:16:21;;;;;;;5.47;3.92;;;;;;;;;;5044699;28;20140;-62
2023/02/19 04:18:46;;;;;;;6.15;4.43;;;;;;;;;;5015395;28;20170;-61
2023/02/19 04:21:12;;;;;;;5.15;3.60;;;;;;;;;;5063895;28;20079;-60
2023/02/19 04:23:38;;;;;;;5.60;3.63;;;;;;;;;;5063750;28;20518;-60
2023/02/19 04:26:03;;;;;;;4.90;3.80;;;;;;;;;;5047397;28;20300;-60
2023/02/19 04:28:28;;;;;;;5.85;4.13;;;;;;;;;;5065218;28;20037;-61
2023/02/19 04:30:54;;;;;;;5.57;3.80;;;;;;;;;;5061881;28;20496;-60
2023/02/19 04:33:19;;;;;;;5.60;4.10;;;;;;;;;;5057488;28;20295;-61
2023/02/19 04:35:44;;;;;;;5.07;3.73;;;;;;;;;;5060417;28;20311;-61
2023/02/19 04:38:09;;;;;;;5.87;3.83;;;;;;;;;;5064885;28;20040;-61
2023/02/19 04:40:35;;;;;;;5.13;3.78;;;;;;;;;;5046314;28;20290;-63
2023/02/19 04:43:00;;;;;;;6.23;3.80;;;;;;;;;;5065318;28;20094;-61
2023/02/19 04:45:25;;;;;;;4.73;3.93;;;;;;;;;;5066747;28;20278;-62
2023/02/19 04:47:50;;;;;;;5.37;3.63;;;;;;;;;;5033717;28;20274;-61
2023/02/19 04:50:15;;;;;;;5.10;3.83;;;;;;;;;;5068523;28;20119;-61
2023/02/19 04:52:41;;;;;;;5.40;3.80;;;;;;;;;;5068659;28;20283;-61
2023/02/19 04:55:06;;;;;;;5.90;4.03;;;;;;;;;;5060247;28;20052;-61
2023/02/19 04:57:32;;;;;;;5.13;3.78;;;;;;;;;;5053507;28;20668;-61
2023/02/19 04:59:57;;;;;;;5.47;3.80;;;;;;;;;;5062221;28;20660;-62
2023/02/19 05:02:22;;;;;;;5.20;3.80;;;;;;;;;;5068299;28;20565;-61
2023/02/19 05:04:48;;;;;;;5.57;3.93;;;;;;;;;;5068669;28;20563;-62
2023/02/19 05:07:13;;;;;;;4.72;3.63;;;;;;;;;;5067689;28;20515;-62
2023/02/19 05:09:38;;;;;;;5.67;3.93;;;;;;;;;;5041578;28;20045;-61
2023/02/19 05:12:03;;;;;;;5.10;3.50;;;;;;;;;;5067443;28;20343;-61
2023/02/19 05:14:29;;;;;;;4.78;3.78;;;;;;;;;;5067605;28;20279;-62
2023/02/19 05:16:54;;;;;;;5.33;3.77;;;;;;;;;;5068675;28;20131;-61
2023/02/19 05:19:19;;;;;;;4.67;3.77;;;;;;;;;;5067883;28;20341;-61
2023/02/19 05:21:44;;;;;;;5.53;3.60;;;;;;;;;;5067907;28;20283;-61
2023/02/19 05:24:10;;;;;;;5.20;3.60;;;;;;;;;;5064121;28;20047;-59
2023/02/19 05:26:35;;;;;;;5.18;3.67;;;;;;;;;;5048220;28;20036;-62
2023/02/19 05:29:00;;;;;;;4.73;3.50;;;;;;;;;;5065369;28;20161;-61
2023/02/19 05:31:25;;;;;;;5.10;3.80;;;;;;;;;;5062965;28;20287;-60
2023/02/19 05:33:51;;;;;;;5.67;4.07;;;;;;;;;;5066565;28;20798;-61
2023/02/19 05:36:17;;;;;;;4.93;3.60;;;;;;;;;;5049128;28;20408;-60
2023/02/19 05:38:42;;;;;;;5.22;3.53;;;;;;;;;;5066848;28;20047;-62
2023/02/19 05:41:11;;;;;;;4.97;3.57;;;;;;;;;;5063304;28;20048;-60
2023/02/19 05:43:37;;;;;;;5.22;3.53;;;;;;;;;;5046663;28;20299;-59
2023/02/19 05:46:02;;;;;;;4.97;3.55;;;;;;;;;;5030820;28;20043;-60
2023/02/19 05:48:27;;;;;;;4.50;3.43;;;;;;;;;;5066304;28;20041;-60
2023/02/19 05:50:52;;;;;;;4.80;3.63;;;;;;;;;;5065433;28;20283;-60
2023/02/19 05:53:18;;;;;;;4.97;3.77;;;;;;;;;;5065947;28;20068;-61
2023/02/19 05:55:43;;;;;;;5.35;3.72;;;;;;;;;;5045235;28;21062;-60
2023/02/19 05:58:08;;;;;;;4.93;3.90;;;;;;;;;;5064985;28;20539;-61
2023/02/19 06:00:33;;;;;;;5.23;3.57;;;;;;;;;;5062026;28;20375;-61
2023/02/19 06:02:59;;;;;;;5.30;3.90;;;;;;;;;;5058617;28;20146;-61
2023/02/19 06:05:24;;;;;;;5.53;4.10;;;;;;;;;;5066266;28;20294;-60
2023/02/19 06:07:49;;;;;;;4.87;3.50;;;;;;;;;;5067665;28;20478;-61
2023/02/19 06:10:15;;;;;;;5.87;3.97;;;;;;;;;;5059810;28;20037;-61
2023/02/19 06:12:40;;;;;;;4.63;3.67;;;;;;;;;;5066333;28;20381;-61
2023/02/19 06:15:05;;;;;;;5.30;3.50;;;;;;;;;;5031705;28;20068;-61
2023/02/19 06:17:31;;;;;;;6.10;3.78;;;;;;;;;;5067076;28;20271;-61
2023/02/19 06:19:56;;;;;;;6.28;3.90;;;;;;;;;;5064883;28;20032;-61
2023/02/19 06:22:22;;;;;;;4.57;3.25;;;;;;;;;;5048491;28;20419;-61
2023/02/19 06:24:47;;;;;;;4.87;3.33;;;;;;;;;;5063994;28;20481;-61
2023/02/19 06:27:12;;;;;;;4.23;3.20;;;;;;;;;;5057717;28;20523;-58
2023/02/19 06:29:37;;;;;;;5.47;3.77;;;;;;;;;;5048273;28;20644;-58
2023/02/19 06:32:03;;;;;;;4.83;3.50;;;;;;;;;;5067458;28;20481;-60
2023/02/19 06:34:28;;;;;;;5.13;3.63;;;;;;;;;;5069470;28;20294;-60
2023/02/19 06:36:54;;;;;;;5.10;3.88;;;;;;;;;;5055437;28;20366;-61
2023/02/19 06:39:19;;;;;;;5.10;3.70;;;;;;;;;;5053532;28;20031;-61
2023/02/19 06:41:44;;;;;;;5.10;3.63;;;;;;;;;;5035180;28;20281;-61
2023/02/19 06:44:09;;;;;;;3.90;3.27;;;;;;;;;;5066073;28;20309;-61
2023/02/19 06:46:35;;;;;;;5.53;3.83;;;;;;;;;;5032761;28;20271;-61
2023/02/19 06:49:00;;;;;;;4.63;3.53;;;;;;;;;;5066770;28;20342;-61
2023/02/19 06:51:27;;;;;;;4.78;3.42;;;;;;;;;;5065052;28;20824;-62
2023/02/19 06:53:52;;;;;;;4.60;3.70;;;;;;;;;;5066452;28;20028;-62
2023/02/19 06:56:23;;;;;;;4.68;3.58;;;;;;;;;;5062647;28;20491;-62
2023/02/19 06:58:48;;;;;;;5.32;3.33;;;;;;;;;;5063698;28;20028;-62
2023/02/19 07:01:13;;;;;;;5.55;3.60;;;;;;;;;;5018661;28;20020;-61
2023/02/19 07:03:39;;;;;;;4.73;3.47;;;;;;;;;;5065745;28;20023;-61
2023/02/19 07:06:04;;;;;;;3.80;3.10;;;;;;;;;;5064332;28;20644;-61
2023/02/19 07:08:29;;;;;;;5.13;3.53;;;;;;;;;;5062806;28;20346;-61
2023/02/19 07:10:55;;;;;;;5.07;3.20;;;;;;;;;;5062683;28;20021;-62
2023/02/19 07:13:20;;;;;;;5.10;3.80;;;;;;;;;;5046185;28;20032;-60
2023/02/19 07:15:46;;;;;;;4.25;3.20;;;;;;;;;;5046145;28;20119;-61
2023/02/19 07:18:11;;;;;;;3.80;3.40;;;;;;;;;;5047433;28;20005;-61
2023/02/19 07:20:36;;;;;;;4.57;3.40;;;;;;;;;;5064074;28;20259;-61
2023/02/19 07:23:02;;;;;;;7.13;3.50;;;;;;;;;;5061005;28;20024;-61
2023/02/19 07:25:27;;;;;;;4.77;3.33;;;;;;;;;;5062450;28;20028;-61
2023/02/19 07:27:52;;;;;;;4.00;2.90;;;;;;;;;;5062030;28;20841;-61
2023/02/19 07:30:17;;;;;;;5.10;3.73;;;;;;;;;;5047333;28;21792;-60
2023/02/19 07:32:44;;;;;;;4.70;3.45;;;;;;;;;;5043668;28;20354;-60
2023/02/19 07:35:09;;;;;;;4.57;2.78;;;;;;;;;;5060938;28;20051;-60
2023/02/19 07:37:34;;;;;;;3.92;3.00;;;;;;;;;;5065111;28;20047;-60
2023/02/19 07:40:00;;;;;;;5.27;3.30;;;;;;;;;;5065571;28;20403;-61
2023/02/19 07:42:25;;;;;;;6.57;3.70;;;;;;;;;;5065132;28;20251;-61
2023/02/19 07:44:50;;;;;;;4.27;3.10;;;;;;;;;;5062479;28;20031;-61
2023/02/19 07:47:15;;;;;;;5.83;3.00;;;;;;;;;;5066223;28;20255;-61
2023/02/19 07:49:41;;;;;;;4.37;3.40;;;;;;;;;;5044648;28;20021;-61
2023/02/19 07:52:06;;;;;;;4.27;3.27;;;;;;;;;;5055863;28;20252;-61
2023/02/19 07:54:31;;;;;;;9.90;3.83;;;;;;;;;;5053825;28;20055;-61
2023/02/19 07:56:57;;;;;;;7.47;3.28;;;;;;;;;;5047113;28;20079;-60
2023/02/19 07:59:22;;;;;;;6.50;3.00;;;;;;;;;;5061380;28;20115;-60
2023/02/19 08:04:31;;;;;;;5.40;3.47;;;;;;;;;;5047802;28;20864;-61
2023/02/19 08:06:56;;;;;;;4.57;3.50;;;;;;;;;;5062524;28;20033;-61
2023/02/19 08:09:21;;;;;;;5.87;3.30;;;;;;;;;;5038574;28;20089;-62
2023/02/19 08:14:31;;;;;;;5.00;3.30;;;;;;;;;;5063052;28;20499;-60
2023/02/19 08:16:56;;;;;;;5.45;3.25;;;;;;;;;;5062100;28;20072;-61
2023/02/19 08:19:21;;;;;;;5.17;3.50;;;;;;;;;;5062460;28;20131;-61
2023/02/19 08:21:46;;;;;;;5.13;2.90;;;;;;;;;;5051402;28;20295;-61
2023/02/19 08:24:12;;;;;;;4.23;2.70;;;;;;;;;;5064275;28;20047;-61
2023/02/19 08:26:37;;;;;;;3.97;3.30;;;;;;;;;;5051474;28;20892;-60
2023/02/19 08:29:02;;;;;;;4.30;3.20;;;;;;;;;;5054005;28;20552;-60
2023/02/19 08:31:28;;;;;;;3.88;2.90;;;;;;;;;;5040693;28;20751;-61
2023/02/19 08:33:53;;;;;;;4.68;3.20;;;;;;;;;;5047207;28;20485;-62
2023/02/19 08:36:18;;;;;;;4.60;3.10;;;;;;;;;;5061909;28;20048;-62
2023/02/19 08:38:43;;;;;;;4.80;3.00;;;;;;;;;;5046657;28;20786;-61
2023/02/19 08:41:09;;;;;;;4.40;2.73;;;;;;;;;;5064236;28;20471;-61
2023/02/19 08:43:35;;;;;;;4.43;3.25;;;;;;;;;;5047091;28;20402;-61
2023/02/19 08:46:00;;;;;;;3.92;2.97;;;;;;;;;;5064928;28;20124;-61
2023/02/19 08:48:26;;;;;;;3.90;2.90;;;;;;;;;;5033797;28;20079;-61
2023/02/19 08:50:52;;;;;;;3.58;2.88;;;;;;;;;;5061936;28;20063;-60
2023/02/19 08:53:17;;;;;;;4.43;2.97;;;;;;;;;;5053565;28;20049;-60
2023/02/19 08:55:42;;;;;;;3.70;2.70;;;;;;;;;;5042229;28;20374;-61
2023/02/19 08:58:08;;;;;;;3.77;2.93;;;;;;;;;;5064443;28;20562;-61
2023/02/19 09:00:33;;;;;;;4.20;2.77;;;;;;;;;;5044809;28;20511;-61
2023/02/19 09:02:58;;;;;;;4.63;3.10;;;;;;;;;;5064933;28;20036;-61
2023/02/19 09:05:23;;;;;;;3.90;2.73;;;;;;;;;;5064467;28;20592;-60
2023/02/19 09:07:48;;;;;;;4.03;3.07;;;;;;;;;;5065277;28;20278;-60
2023/02/19 09:10:14;;;;;;;3.73;2.60;;;;;;;;;;5045746;28;20036;-61
2023/02/19 09:12:39;;;;;;;3.40;2.70;;;;;;;;;;5052630;28;20036;-61
2023/02/19 09:15:05;;;;;;;4.50;3.10;;;;;;;;;;5064031;28;20373;-60
2023/02/19 09:17:30;;;;;;;3.08;2.50;;;;;;;;;;5045834;28;20032;-61
2023/02/19 09:19:55;;;;;;;5.13;3.40;;;;;;;;;;5042913;28;20477;-61
2023/02/19 09:22:20;;;;;;;3.33;2.50;;;;;;;;;;5062172;28;20283;-60
2023/02/19 09:24:46;;;;;;;4.17;2.90;;;;;;;;;;5063048;28;20119;-62
2023/02/19 09:27:14;;;;;;;4.60;3.10;;;;;;;;;;5045395;28;20115;-60
2023/02/19 09:29:39;;;;;;;4.03;2.78;;;;;;;;;;5061523;28;20294;-61
2023/02/19 09:32:05;;;;;;;4.80;2.93;;;;;;;;;;5052503;28;20039;-61
2023/02/19 09:34:30;;;;;;;3.50;2.80;;;;;;;;;;5040919;28;20131;-61
2023/02/19 09:36:55;;;;;;;3.85;2.65;;;;;;;;;;5049252;28;20068;-61
2023/02/19 09:39:20;;;;;;;3.33;2.50;;;;;;;;;;5060049;28;20135;-62
2023/02/19 09:41:50;;;;;;;4.03;2.70;;;;;;;;;;5064906;28;20421;-59
2023/02/19 09:44:21;;;;;;;2.95;2.17;;;;;;;;;;5067356;28;20286;-60
2023/02/19 09:46:47;;;;;;;3.00;2.30;;;;;;;;;;5048823;28;20036;-60
2023/02/19 09:49:18;;;;;;;3.85;2.83;;;;;;;;;;5043494;28;20125;-60
2023/02/19 09:51:55;;;;;;;4.15;2.90;;;;;;;;;;5053616;28;20032;-60
2023/02/19 09:54:21;;;;;;;3.55;2.65;;;;;;;;;;5047810;28;20040;-60
2023/02/19 09:56:47;;;;;;;3.50;2.80;;;;;;;;;;5041648;28;20062;-59
2023/02/19 09:59:31;;;;;;;3.65;2.55;;;;;;;;;;5065619;28;20085;-60
2023/02/19 10:01:58;;;;;;;4.13;2.55;;;;;;;;;;5066993;28;20527;-61
2023/02/19 10:04:23;;;;;;;3.72;2.45;;;;;;;;;;5048984;28;20441;-60
2023/02/19 10:06:48;;;;;;;3.47;2.60;;;;;;;;;;5066704;28;20044;-59
2023/02/19 10:09:17;;;;;;;4.07;3.03;;;;;;;;;;5063147;28;20048;-60
2023/02/19 10:11:42;;;;;;;3.63;2.63;;;;;;;;;;5054307;28;20428;-59
2023/02/19 10:14:09;;;;;;;3.47;2.50;;;;;;;;;;5062202;28;20044;-60
2023/02/19 10:16:35;;;;;;;3.28;2.40;;;;;;;;;;5031767;28;20302;-60
2023/02/19 10:19:00;;;;;;;3.35;2.65;;;;;;;;;;5047875;28;20036;-60
2023/02/19 10:21:26;;;;;;;3.40;2.50;;;;;;;;;;5046656;28;20496;-59
2023/02/19 10:23:55;;;;;;;4.05;2.45;;;;;;;;;;5065996;28;20504;-61
2023/02/19 10:26:21;;;;;;;3.50;2.60;;;;;;;;;;5065293;28;20105;-61
2023/02/19 10:28:46;;;;;;;2.92;2.42;;;;;;;;;;5046505;28;20044;-60
2023/02/19 10:31:15;;;;;;;3.97;2.43;;;;;;;;;;5037588;28;20036;-60
2023/02/19 10:33:47;;;;;;;3.50;2.63;;;;;;;;;;5065848;28;20309;-60
2023/02/19 10:36:25;;;;;;;3.00;2.10;;;;;;;;;;5065630;28;20135;-59
2023/02/19 10:38:50;;;;;;;3.28;2.55;;;;;;;;;;5064435;28;20032;-60
2023/02/19 10:41:22;;;;;;;3.55;2.53;;;;;;;;;;5046983;28;20124;-60
2023/02/19 10:43:53;;;;;;;3.90;2.60;;;;;;;;;;5046239;28;20033;-60
2023/02/19 10:46:25;;;;;;;3.15;2.40;;;;;;;;;;5066127;28;20044;-60
2023/02/19 10:49:03;;;;;;;3.20;2.58;;;;;;;;;;5018160;28;20489;-60
2023/02/19 10:51:33;;;;;;;3.25;2.63;;;;;;;;;;5047571;28;20040;-60
2023/02/19 10:54:17;;;;;;;3.35;2.38;;;;;;;;;;5065636;28;20047;-59
2023/02/19 10:56:42;;;;;;;3.33;2.70;;;;;;;;;;5065739;28;20459;-60
2023/02/19 10:59:16;;;;;;;4.47;2.28;;;;;;;;;;5054187;28;20049;-60
2023/02/19 11:01:54;;;;;;;3.60;2.40;;;;;;;;;;5038455;28;20020;-61
2023/02/19 11:04:19;;;;;;;3.28;2.40;;;;;;;;;;5065164;28;20032;-61
2023/02/19 11:06:45;;;;;;;13.25;3.30;;;;;;;;;;5058336;28;20078;-60
2023/02/19 11:09:30;;;;;;;5.67;3.20;;;;;;;;;;5062888;28;20120;-60
2023/02/19 11:11:55;;;;;;;9.13;3.70;;;;;;;;;;5055290;28;20290;-62
2023/02/19 11:14:22;;;;;;;6.65;3.30;;;;;;;;;;5040377;28;20036;-61
2023/02/19 11:16:48;;;;;;;6.28;3.90;;;;;;;;;;5022218;23;20041;-62
2023/02/19 11:19:39;;;;;;;5.60;2.97;;;;;;;;;;5038093;28;20471;-61
2023/02/19 11:22:23;;;;;;;7.80;3.50;;;;;;;;;;5008872;28;20865;-63
2023/02/19 11:24:49;;;;;;;5.60;3.20;;;;;;;;;;5025852;28;20485;-64
2023/02/19 11:27:18;;;;;;;5.10;3.28;;;;;;;;;;5043430;28;20040;-62
2023/02/19 11:29:44;;;;;;;5.93;3.28;;;;;;;;;;5023586;28;20049;-62
2023/02/19 11:32:15;;;;;;;6.77;3.13;;;;;;;;;;5044149;28;20029;-62
2023/02/19 11:34:41;;;;;;;5.38;3.17;;;;;;;;;;5011138;28;20272;-62
2023/02/19 11:37:07;;;;;;;4.80;2.90;;;;;;;;;;5049024;22;20500;-66
2023/02/19 11:39:32;;;;;;;4.65;2.50;;;;;;;;;;5064653;28;20068;-64
2023/02/19 11:42:10;;;;;;;4.10;2.80;;;;;;;;;;5048156;28;20052;-64
2023/02/19 11:44:54;;;;;;;5.65;2.50;;;;;;;;;;5060701;28;20188;-65
2023/02/19 11:47:22;;;;;;;3.85;2.38;;;;;;;;;;5060374;28;20075;-65
2023/02/19 11:50:06;;;;;;;4.38;2.28;;;;;;;;;;5062946;28;20064;-68
2023/02/19 11:52:41;;;;;;;3.58;2.38;;;;;;;;;;5063358;28;20483;-64
2023/02/19 11:55:06;;;;;;;4.88;2.30;;;;;;;;;;5045804;28;20024;-62
2023/02/19 11:57:35;;;;;;;3.93;2.40;;;;;;;;;;5042462;28;20025;-64
2023/02/19 12:00:00;;;;;;;3.03;2.20;;;;;;;;;;5047345;28;20325;-65
2023/02/19 12:02:31;;;;;;;4.50;2.40;;;;;;;;;;5063065;28;20028;-64
2023/02/19 12:05:11;;;;;;;3.45;2.00;;;;;;;;;;5053064;28;20028;-66
2023/02/19 12:07:43;;;;;;;4.93;2.50;;;;;;;;;;5061572;28;20040;-66
2023/02/19 12:10:11;;;;;;;3.58;2.13;;;;;;;;;;5061705;28;20071;-68
2023/02/19 12:12:37;;;;;;;3.22;1.88;;;;;;;;;;5059337;28;20040;-68
2023/02/19 12:15:14;;;;;;;3.00;2.20;;;;;;;;;;5060412;28;20451;-64
2023/02/19 12:18:03;;;;;;;5.05;2.28;;;;;;;;;;5044344;28;20763;-66
2023/02/19 12:20:42;;;;;;;3.88;2.22;;;;;;;;;;5028447;28;20108;-67
2023/02/19 12:23:17;;;;;;;2.67;2.00;;;;;;;;;;5029017;28;20404;-66
2023/02/19 12:25:54;;;;;;;3.88;2.13;;;;;;;;;;5055071;28;20029;-66
2023/02/19 12:28:25;;;;;;;5.03;2.67;;;;;;;;;;5039438;28;20091;-64
2023/02/19 12:31:16;;;;;;;3.10;2.50;;;;;;;;;;5062875;28;20045;-66
2023/02/19 12:33:44;;;;;;;3.60;2.20;;;;;;;;;;5029054;28;20197;-65
2023/02/19 12:36:16;;;;;;;4.03;2.50;;;;;;;;;;5059552;28;20044;-67
2023/02/19 12:39:00;;;;;;;4.10;2.45;;;;;;;;;;5029386;28;20037;-65
2023/02/19 12:41:31;;;;;;;3.58;2.28;;;;;;;;;;5016971;28;20534;-64
2023/02/19 12:44:01;;;;;;;4.80;2.60;;;;;;;;;;5063927;28;20028;-63
2023/02/19 12:46:37;;;;;;;3.47;2.40;;;;;;;;;;5033324;28;20032;-67
2023/02/19 12:49:02;;;;;;;5.15;2.90;;;;;;;;;;5045627;28;20044;-66
2023/02/19 12:51:31;;;;;;;4.83;2.83;;;;;;;;;;5063375;28;20023;-65
2023/02/19 12:53:57;;;;;;;3.88;2.60;;;;;;;;;;5061092;28;20028;-63
2023/02/19 12:56:24;;;;;;;4.20;2.80;;;;;;;;;;5059782;28;20037;-67
2023/02/19 12:58:57;;;;;;;4.63;2.80;;;;;;;;;;5042970;28;20013;-63
2023/02/19 13:01:27;;;;;;;4.90;2.97;;;;;;;;;;5040993;28;20020;-68
2023/02/19 13:03:55;;;;;;;3.85;2.97;;;;;;;;;;5045800;28;20492;-68
2023/02/19 13:06:20;;;;;;;4.70;2.80;;;;;;;;;;5062301;28;20056;-69
2023/02/19 13:08:47;;;;;;;3.93;2.83;;;;;;;;;;5047352;28;20110;-65
2023/02/19 13:11:16;;;;;;;3.67;2.63;;;;;;;;;;5067079;28;20036;-68
2023/02/19 13:13:46;;;;;;;4.18;2.88;;;;;;;;;;5068033;28;20028;-66
2023/02/19 13:16:15;;;;;;;4.15;2.65;;;;;;;;;;5049454;28;20098;-66
2023/02/19 13:18:45;;;;;;;3.95;3.00;;;;;;;;;;5049267;28;20032;-68
2023/02/19 13:21:11;;;;;;;4.43;3.05;;;;;;;;;;5045305;28;20037;-64
2023/02/19 13:26:21;;;;;;;3.88;2.58;;;;;;;;;;5051058;28;20047;-67
2023/02/19 13:29:06;;;;;;;4.47;2.97;;;;;;;;;;5067704;28;20029;-68
2023/02/19 13:31:32;;;;;;;5.57;2.65;;;;;;;;;;5060814;28;20037;-69
2023/02/19 13:34:03;;;;;;;3.97;2.60;;;;;;;;;;5059192;28;20032;-67
2023/02/19 13:36:28;;;;;;;4.07;2.70;;;;;;;;;;5064290;28;20687;-70
2023/02/19 13:38:56;;;;;;;4.30;2.80;;;;;;;;;;5028658;28;20045;-63
2023/02/19 13:41:50;;;;;;;5.15;2.88;;;;;;;;;;5063526;28;20283;-66
2023/02/19 13:44:17;;;;;;;3.63;2.83;;;;;;;;;;5042301;28;20047;-63
2023/02/19 13:46:43;;;;;;;4.43;2.80;;;;;;;;;;5065753;28;20194;-62
2023/02/19 13:49:23;;;;;;;4.60;3.05;;;;;;;;;;5064696;28;20115;-63
2023/02/19 13:51:52;;;;;;;3.88;2.63;;;;;;;;;;5062907;28;20562;-65
2023/02/19 13:54:25;;;;;;;4.68;2.90;;;;;;;;;;5044365;28;20082;-66
2023/02/19 13:57:11;;;;;;;5.28;2.72;;;;;;;;;;5063895;28;20515;-64
2023/02/19 13:59:36;;;;;;;4.07;2.63;;;;;;;;;;5064357;28;20087;-65
2023/02/19 14:02:02;;;;;;;5.45;3.10;;;;;;;;;;5047521;28;20564;-65
2023/02/19 14:04:39;;;;;;;3.88;3.00;;;;;;;;;;5046663;28;20048;-66
2023/02/19 14:07:04;;;;;;;5.45;2.95;;;;;;;;;;5062063;28;20033;-64
2023/02/19 14:09:33;;;;;;;6.93;2.70;;;;;;;;;;5065042;28;20032;-66
2023/02/19 14:12:11;;;;;;;4.47;2.92;;;;;;;;;;5066270;28;20101;-67
2023/02/19 14:14:39;;;;;;;5.30;3.00;;;;;;;;;;5070581;28;20040;-63
2023/02/19 14:17:06;;;;;;;4.10;2.90;;;;;;;;;;5067419;28;20057;-62
2023/02/19 14:19:40;;;;;;;9.32;2.90;;;;;;;;;;5043105;28;20025;-63
2023/02/19 14:22:24;;;;;;;7.05;3.20;;;;;;;;;;5066527;28;20043;-63
2023/02/19 14:24:50;;;;;;;5.00;2.90;;;;;;;;;;5063583;28;20036;-63
2023/02/19 14:27:16;;;;;;;5.07;3.13;;;;;;;;;;5031043;28;20041;-65
2023/02/19 14:29:41;;;;;;;6.43;3.60;;;;;;;;;;5032623;28;20025;-64
2023/02/19 14:32:06;;;;;;;6.50;3.23;;;;;;;;;;5044453;28;20352;-63
2023/02/19 14:34:32;;;;;;;5.33;3.20;;;;;;;;;;5035727;28;20359;-61
2023/02/19 14:36:57;;;;;;;7.78;3.25;;;;;;;;;;5063251;28;20135;-68
2023/02/19 14:39:31;;;;;;;6.13;3.17;;;;;;;;;;5031063;28;20029;-66
2023/02/19 14:42:15;;;;;;;6.07;3.40;;;;;;;;;;5032117;28;20054;-66
2023/02/19 14:44:47;;;;;;;4.53;2.83;;;;;;;;;;5060495;28;20412;-60
2023/02/19 14:47:13;;;;;;;4.90;3.03;;;;;;;;;;5046932;28;20267;-60
2023/02/19 14:49:45;;;;;;;5.22;3.10;;;;;;;;;;5035488;28;20033;-61
2023/02/19 14:52:24;;;;;;;4.70;3.13;;;;;;;;;;5030257;28;20102;-61
2023/02/19 14:54:53;;;;;;;6.70;3.60;;;;;;;;;;5045464;28;20126;-65
2023/02/19 14:57:28;;;;;;;4.90;3.10;;;;;;;;;;5045928;28;20394;-60
2023/02/19 14:59:54;;;;;;;6.25;3.33;;;;;;;;;;5046303;28;20131;-67
2023/02/19 15:02:20;;;;;;;4.82;3.30;;;;;;;;;;5030504;28;20039;-66
2023/02/19 15:04:45;;;;;;;6.88;3.30;;;;;;;;;;5063583;28;20532;-69
2023/02/19 15:07:12;;;;;;;6.07;3.50;;;;;;;;;;5041682;28;20036;-63
2023/02/19 15:09:42;;;;;;;5.45;2.85;;;;;;;;;;5041313;28;20037;-66
2023/02/19 15:12:12;;;;;;;9.25;3.55;;;;;;;;;;5030530;28;20131;-62
2023/02/19 15:14:37;;;;;;;4.70;3.03;;;;;;;;;;5063687;28;20044;-63
2023/02/19 15:17:03;;;;;;;5.27;2.90;;;;;;;;;;5058958;28;20460;-63
2023/02/19 15:19:31;;;;;;;7.30;3.47;;;;;;;;;;5055192;28;20510;-64
2023/02/19 15:21:56;;;;;;;5.80;3.10;;;;;;;;;;5025706;28;20488;-68